sensor_id;sensor_type;location;lat;lon;timestamp;P1;durP1;ratioP1;P2;durP2;ratioP2
11123;SDS011;5616;42.692;23.312;2023-03-14T00:00:47;7.70;;;5.70;;
11123;SDS011;5616;42.692;23.312;2023-03-14T00:03:14;7.47;;;5.77;;
11123;SDS011;5616;42.692;23.312;2023-03-14T00:05:41;7.43;;;5.40;;
11123;SDS011;5616;42.692;23.312;2023-03-14T00:08:08;8.17;;;5.00;;
11123;SDS011;5616;42.692;23.312;2023-03-14T00:10:36;5.37;;;4.20;;
11123;SDS011;5616;42.692;23.312;2023-03-14T00:13:03;6.33;;;4.20;;
11123;SDS011;5616;42.692;23.312;2023-03-14T00:15:31;4.97;;;3.80;;
11123;SDS011;5616;42.692;23.312;2023-03-14T00:17:58;6.67;;;4.53;;
11123;SDS011;5616;42.692;23.312;2023-03-14T00:20:25;5.27;;;4.20;;
11123;SDS011;5616;42.692;23.312;2023-03-14T00:22:52;5.13;;;4.10;;
11123;SDS011;5616;42.692;23.312;2023-03-14T00:25:19;4.83;;;3.90;;
11123;SDS011;5616;42.692;23.312;2023-03-14T00:27:47;6.03;;;4.00;;
11123;SDS011;5616;42.692;23.312;2023-03-14T00:30:17;6.37;;;3.90;;
11123;SDS011;5616;42.692;23.312;2023-03-14T00:32:45;5.40;;;3.93;;
11123;SDS011;5616;42.692;23.312;2023-03-14T00:35:12;6.83;;;3.90;;
11123;SDS011;5616;42.692;23.312;2023-03-14T00:37:39;5.53;;;3.90;;
11123;SDS011;5616;42.692;23.312;2023-03-14T00:40:06;5.83;;;4.13;;
11123;SDS011;5616;42.692;23.312;2023-03-14T00:42:34;5.03;;;3.93;;
11123;SDS011;5616;42.692;23.312;2023-03-14T00:45:02;5.43;;;3.77;;
11123;SDS011;5616;42.692;23.312;2023-03-14T00:47:32;7.00;;;3.77;;
11123;SDS011;5616;42.692;23.312;2023-03-14T00:49:59;4.43;;;3.50;;
11123;SDS011;5616;42.692;23.312;2023-03-14T00:52:26;4.30;;;3.60;;
11123;SDS011;5616;42.692;23.312;2023-03-14T00:54:53;6.27;;;4.03;;
11123;SDS011;5616;42.692;23.312;2023-03-14T00:57:19;7.20;;;3.47;;
11123;SDS011;5616;42.692;23.312;2023-03-14T00:59:46;6.40;;;3.93;;
11123;SDS011;5616;42.692;23.312;2023-03-14T01:02:14;6.90;;;4.00;;
11123;SDS011;5616;42.692;23.312;2023-03-14T01:04:41;5.87;;;3.87;;
11123;SDS011;5616;42.692;23.312;2023-03-14T01:07:08;6.73;;;3.83;;
11123;SDS011;5616;42.692;23.312;2023-03-14T01:09:38;4.67;;;3.77;;
11123;SDS011;5616;42.692;23.312;2023-03-14T01:12:04;4.23;;;3.60;;
11123;SDS011;5616;42.692;23.312;2023-03-14T01:14:31;4.40;;;3.23;;
11123;SDS011;5616;42.692;23.312;2023-03-14T01:16:58;6.07;;;3.80;;
11123;SDS011;5616;42.692;23.312;2023-03-14T01:19:28;4.40;;;3.40;;
11123;SDS011;5616;42.692;23.312;2023-03-14T01:21:55;5.80;;;4.10;;
11123;SDS011;5616;42.692;23.312;2023-03-14T01:24:21;4.53;;;3.60;;
11123;SDS011;5616;42.692;23.312;2023-03-14T01:26:48;4.97;;;3.90;;
11123;SDS011;5616;42.692;23.312;2023-03-14T01:29:15;4.87;;;3.87;;
11123;SDS011;5616;42.692;23.312;2023-03-14T01:31:42;5.43;;;3.90;;
11123;SDS011;5616;42.692;23.312;2023-03-14T01:34:09;5.27;;;4.00;;
11123;SDS011;5616;42.692;23.312;2023-03-14T01:36:37;5.23;;;3.83;;
11123;SDS011;5616;42.692;23.312;2023-03-14T01:39:04;4.93;;;3.70;;
11123;SDS011;5616;42.692;23.312;2023-03-14T01:41:33;4.30;;;3.77;;
11123;SDS011;5616;42.692;23.312;2023-03-14T01:44:00;5.10;;;3.93;;
11123;SDS011;5616;42.692;23.312;2023-03-14T01:46:32;4.80;;;3.67;;
11123;SDS011;5616;42.692;23.312;2023-03-14T01:49:04;5.17;;;3.60;;
11123;SDS011;5616;42.692;23.312;2023-03-14T01:51:38;5.70;;;3.43;;
11123;SDS011;5616;42.692;23.312;2023-03-14T01:54:14;6.23;;;4.80;;
11123;SDS011;5616;42.692;23.312;2023-03-14T01:56:47;8.67;;;6.10;;
11123;SDS011;5616;42.692;23.312;2023-03-14T01:59:17;14.17;;;8.83;;
11123;SDS011;5616;42.692;23.312;2023-03-14T02:01:45;14.83;;;9.60;;
11123;SDS011;5616;42.692;23.312;2023-03-14T02:04:14;14.03;;;9.60;;
11123;SDS011;5616;42.692;23.312;2023-03-14T02:06:47;13.43;;;9.60;;
11123;SDS011;5616;42.692;23.312;2023-03-14T02:09:17;12.07;;;9.37;;
11123;SDS011;5616;42.692;23.312;2023-03-14T02:11:45;13.50;;;9.17;;
11123;SDS011;5616;42.692;23.312;2023-03-14T02:14:28;13.83;;;9.87;;
11123;SDS011;5616;42.692;23.312;2023-03-14T02:17:15;12.37;;;9.30;;
11123;SDS011;5616;42.692;23.312;2023-03-14T02:20:20;13.60;;;9.20;;
11123;SDS011;5616;42.692;23.312;2023-03-14T02:22:59;11.50;;;8.73;;
11123;SDS011;5616;42.692;23.312;2023-03-14T02:25:30;13.20;;;9.10;;
11123;SDS011;5616;42.692;23.312;2023-03-14T02:28:07;13.20;;;9.03;;
11123;SDS011;5616;42.692;23.312;2023-03-14T02:30:36;12.17;;;9.20;;
11123;SDS011;5616;42.692;23.312;2023-03-14T02:33:04;11.90;;;8.67;;
11123;SDS011;5616;42.692;23.312;2023-03-14T02:35:34;14.00;;;8.90;;
11123;SDS011;5616;42.692;23.312;2023-03-14T02:38:03;11.30;;;9.03;;
11123;SDS011;5616;42.692;23.312;2023-03-14T02:40:41;14.90;;;9.17;;
11123;SDS011;5616;42.692;23.312;2023-03-14T02:43:09;12.23;;;8.83;;
11123;SDS011;5616;42.692;23.312;2023-03-14T02:45:41;15.37;;;9.33;;
11123;SDS011;5616;42.692;23.312;2023-03-14T02:48:13;14.30;;;8.70;;
11123;SDS011;5616;42.692;23.312;2023-03-14T02:50:43;15.87;;;9.33;;
11123;SDS011;5616;42.692;23.312;2023-03-14T02:53:12;14.17;;;9.40;;
11123;SDS011;5616;42.692;23.312;2023-03-14T02:55:44;12.57;;;9.07;;
11123;SDS011;5616;42.692;23.312;2023-03-14T02:58:15;13.63;;;9.10;;
11123;SDS011;5616;42.692;23.312;2023-03-14T03:00:43;15.87;;;9.70;;
11123;SDS011;5616;42.692;23.312;2023-03-14T03:03:11;13.97;;;9.53;;
11123;SDS011;5616;42.692;23.312;2023-03-14T03:05:39;13.73;;;10.73;;
11123;SDS011;5616;42.692;23.312;2023-03-14T03:08:07;12.43;;;9.17;;
11123;SDS011;5616;42.692;23.312;2023-03-14T03:10:36;11.30;;;8.80;;
11123;SDS011;5616;42.692;23.312;2023-03-14T03:13:03;10.90;;;8.47;;
11123;SDS011;5616;42.692;23.312;2023-03-14T03:15:31;12.17;;;9.10;;
11123;SDS011;5616;42.692;23.312;2023-03-14T03:17:58;12.37;;;8.93;;
11123;SDS011;5616;42.692;23.312;2023-03-14T03:20:25;12.93;;;9.33;;
11123;SDS011;5616;42.692;23.312;2023-03-14T03:22:52;13.27;;;9.50;;
11123;SDS011;5616;42.692;23.312;2023-03-14T03:25:18;15.20;;;9.57;;
11123;SDS011;5616;42.692;23.312;2023-03-14T03:27:45;12.50;;;9.23;;
11123;SDS011;5616;42.692;23.312;2023-03-14T03:30:16;15.30;;;10.07;;
11123;SDS011;5616;42.692;23.312;2023-03-14T03:32:44;13.40;;;10.50;;
11123;SDS011;5616;42.692;23.312;2023-03-14T03:35:12;17.13;;;10.47;;
11123;SDS011;5616;42.692;23.312;2023-03-14T03:37:40;15.63;;;10.43;;
11123;SDS011;5616;42.692;23.312;2023-03-14T03:40:07;13.37;;;10.00;;
11123;SDS011;5616;42.692;23.312;2023-03-14T03:42:35;13.90;;;10.20;;
11123;SDS011;5616;42.692;23.312;2023-03-14T03:47:55;13.57;;;9.93;;
11123;SDS011;5616;42.692;23.312;2023-03-14T03:50:22;14.50;;;10.00;;
11123;SDS011;5616;42.692;23.312;2023-03-14T03:52:49;14.13;;;9.60;;
11123;SDS011;5616;42.692;23.312;2023-03-14T03:55:16;12.37;;;10.20;;
11123;SDS011;5616;42.692;23.312;2023-03-14T03:57:44;12.77;;;9.20;;
11123;SDS011;5616;42.692;23.312;2023-03-14T04:00:11;12.83;;;9.13;;
11123;SDS011;5616;42.692;23.312;2023-03-14T04:02:41;11.97;;;8.47;;
11123;SDS011;5616;42.692;23.312;2023-03-14T04:05:13;15.80;;;9.83;;
11123;SDS011;5616;42.692;23.312;2023-03-14T04:07:46;13.13;;;8.83;;
11123;SDS011;5616;42.692;23.312;2023-03-14T04:10:17;13.73;;;8.77;;
11123;SDS011;5616;42.692;23.312;2023-03-14T04:13:01;10.57;;;8.87;;
11123;SDS011;5616;42.692;23.312;2023-03-14T04:15:30;15.20;;;8.93;;
11123;SDS011;5616;42.692;23.312;2023-03-14T04:18:01;11.60;;;8.87;;
11123;SDS011;5616;42.692;23.312;2023-03-14T04:20:30;11.60;;;8.90;;
11123;SDS011;5616;42.692;23.312;2023-03-14T04:23:00;12.40;;;8.60;;
11123;SDS011;5616;42.692;23.312;2023-03-14T04:25:27;13.60;;;8.63;;
11123;SDS011;5616;42.692;23.312;2023-03-14T04:27:57;16.23;;;8.57;;
11123;SDS011;5616;42.692;23.312;2023-03-14T04:30:27;15.50;;;8.80;;
11123;SDS011;5616;42.692;23.312;2023-03-14T04:32:57;12.13;;;9.10;;
11123;SDS011;5616;42.692;23.312;2023-03-14T04:35:26;13.80;;;9.33;;
11123;SDS011;5616;42.692;23.312;2023-03-14T04:37:59;14.63;;;9.00;;
11123;SDS011;5616;42.692;23.312;2023-03-14T04:40:26;15.73;;;9.20;;
11123;SDS011;5616;42.692;23.312;2023-03-14T04:42:58;13.80;;;9.40;;
11123;SDS011;5616;42.692;23.312;2023-03-14T04:45:25;11.97;;;8.60;;
11123;SDS011;5616;42.692;23.312;2023-03-14T04:47:54;11.97;;;9.00;;
11123;SDS011;5616;42.692;23.312;2023-03-14T04:50:21;12.23;;;8.70;;
11123;SDS011;5616;42.692;23.312;2023-03-14T04:52:48;11.90;;;8.67;;
11123;SDS011;5616;42.692;23.312;2023-03-14T04:55:17;10.70;;;8.37;;
11123;SDS011;5616;42.692;23.312;2023-03-14T04:57:44;12.60;;;8.60;;
11123;SDS011;5616;42.692;23.312;2023-03-14T05:00:11;13.37;;;8.70;;
11123;SDS011;5616;42.692;23.312;2023-03-14T05:03:11;11.30;;;8.00;;
11123;SDS011;5616;42.692;23.312;2023-03-14T05:05:50;11.00;;;8.20;;
11123;SDS011;5616;42.692;23.312;2023-03-14T05:08:33;12.10;;;7.87;;
11123;SDS011;5616;42.692;23.312;2023-03-14T05:11:34;13.53;;;9.30;;
11123;SDS011;5616;42.692;23.312;2023-03-14T05:14:03;12.57;;;9.07;;
11123;SDS011;5616;42.692;23.312;2023-03-14T05:16:54;13.17;;;8.80;;
11123;SDS011;5616;42.692;23.312;2023-03-14T05:19:53;15.67;;;9.70;;
11123;SDS011;5616;42.692;23.312;2023-03-14T05:22:38;14.57;;;9.47;;
11123;SDS011;5616;42.692;23.312;2023-03-14T05:25:22;16.30;;;11.03;;
11123;SDS011;5616;42.692;23.312;2023-03-14T05:28:11;14.40;;;10.17;;
11123;SDS011;5616;42.692;23.312;2023-03-14T05:30:54;17.23;;;11.87;;
11123;SDS011;5616;42.692;23.312;2023-03-14T05:33:31;17.70;;;11.77;;
11123;SDS011;5616;42.692;23.312;2023-03-14T05:36:09;16.80;;;11.43;;
11123;SDS011;5616;42.692;23.312;2023-03-14T05:38:54;16.13;;;11.00;;
11123;SDS011;5616;42.692;23.312;2023-03-14T05:41:42;16.27;;;10.53;;
11123;SDS011;5616;42.692;23.312;2023-03-14T05:44:48;20.27;;;10.87;;
11123;SDS011;5616;42.692;23.312;2023-03-14T05:47:44;21.53;;;10.73;;
11123;SDS011;5616;42.692;23.312;2023-03-14T05:50:38;19.57;;;11.27;;
11123;SDS011;5616;42.692;23.312;2023-03-14T05:53:34;15.97;;;10.73;;
11123;SDS011;5616;42.692;23.312;2023-03-14T05:56:30;13.37;;;10.00;;
11123;SDS011;5616;42.692;23.312;2023-03-14T05:59:13;14.50;;;10.00;;
11123;SDS011;5616;42.692;23.312;2023-03-14T06:02:02;15.27;;;10.33;;
11123;SDS011;5616;42.692;23.312;2023-03-14T06:04:37;12.83;;;10.60;;
11123;SDS011;5616;42.692;23.312;2023-03-14T06:07:04;14.00;;;10.77;;
11123;SDS011;5616;42.692;23.312;2023-03-14T06:09:31;20.03;;;10.40;;
11123;SDS011;5616;42.692;23.312;2023-03-14T06:12:00;17.37;;;10.03;;
11123;SDS011;5616;42.692;23.312;2023-03-14T06:14:31;16.90;;;10.27;;
11123;SDS011;5616;42.692;23.312;2023-03-14T06:16:58;16.37;;;10.47;;
11123;SDS011;5616;42.692;23.312;2023-03-14T06:19:29;15.60;;;10.50;;
11123;SDS011;5616;42.692;23.312;2023-03-14T06:21:56;16.03;;;10.33;;
11123;SDS011;5616;42.692;23.312;2023-03-14T06:24:24;14.80;;;10.80;;
11123;SDS011;5616;42.692;23.312;2023-03-14T06:26:51;19.87;;;11.00;;
11123;SDS011;5616;42.692;23.312;2023-03-14T06:29:18;16.10;;;10.00;;
11123;SDS011;5616;42.692;23.312;2023-03-14T06:31:45;20.77;;;10.80;;
11123;SDS011;5616;42.692;23.312;2023-03-14T06:34:14;16.93;;;10.43;;
11123;SDS011;5616;42.692;23.312;2023-03-14T06:36:43;14.77;;;11.13;;
11123;SDS011;5616;42.692;23.312;2023-03-14T06:39:10;18.83;;;10.83;;
11123;SDS011;5616;42.692;23.312;2023-03-14T06:41:41;22.53;;;10.80;;
11123;SDS011;5616;42.692;23.312;2023-03-14T06:44:09;14.33;;;11.37;;
11123;SDS011;5616;42.692;23.312;2023-03-14T06:46:37;22.73;;;11.83;;
11123;SDS011;5616;42.692;23.312;2023-03-14T06:49:03;43.77;;;21.60;;
11123;SDS011;5616;42.692;23.312;2023-03-14T06:51:32;19.60;;;12.60;;
11123;SDS011;5616;42.692;23.312;2023-03-14T06:54:02;17.93;;;12.50;;
11123;SDS011;5616;42.692;23.312;2023-03-14T06:56:29;22.83;;;12.77;;
11123;SDS011;5616;42.692;23.312;2023-03-14T06:58:57;23.43;;;12.70;;
11123;SDS011;5616;42.692;23.312;2023-03-14T07:01:28;16.63;;;11.33;;
11123;SDS011;5616;42.692;23.312;2023-03-14T07:04:04;13.37;;;9.70;;
11123;SDS011;5616;42.692;23.312;2023-03-14T07:06:32;14.03;;;9.40;;
11123;SDS011;5616;42.692;23.312;2023-03-14T07:09:00;13.93;;;9.10;;
11123;SDS011;5616;42.692;23.312;2023-03-14T07:11:28;13.80;;;9.13;;
11123;SDS011;5616;42.692;23.312;2023-03-14T07:13:56;13.80;;;9.80;;
11123;SDS011;5616;42.692;23.312;2023-03-14T07:16:22;12.10;;;8.87;;
11123;SDS011;5616;42.692;23.312;2023-03-14T07:18:50;13.77;;;7.70;;
11123;SDS011;5616;42.692;23.312;2023-03-14T07:21:17;11.27;;;8.10;;
11123;SDS011;5616;42.692;23.312;2023-03-14T07:23:44;14.60;;;9.90;;
11123;SDS011;5616;42.692;23.312;2023-03-14T07:26:12;15.47;;;9.20;;
11123;SDS011;5616;42.692;23.312;2023-03-14T07:28:46;14.60;;;9.57;;
11123;SDS011;5616;42.692;23.312;2023-03-14T07:31:16;15.00;;;10.00;;
11123;SDS011;5616;42.692;23.312;2023-03-14T07:33:43;12.93;;;9.67;;
11123;SDS011;5616;42.692;23.312;2023-03-14T07:36:10;15.23;;;10.03;;
11123;SDS011;5616;42.692;23.312;2023-03-14T07:38:40;15.93;;;11.43;;
11123;SDS011;5616;42.692;23.312;2023-03-14T07:41:13;16.33;;;11.47;;
11123;SDS011;5616;42.692;23.312;2023-03-14T07:43:49;12.50;;;10.23;;
11123;SDS011;5616;42.692;23.312;2023-03-14T07:46:16;18.17;;;10.00;;
11123;SDS011;5616;42.692;23.312;2023-03-14T07:48:43;18.50;;;10.03;;
11123;SDS011;5616;42.692;23.312;2023-03-14T07:51:10;16.60;;;10.43;;
11123;SDS011;5616;42.692;23.312;2023-03-14T07:53:37;13.90;;;10.37;;
11123;SDS011;5616;42.692;23.312;2023-03-14T07:56:04;16.47;;;10.63;;
11123;SDS011;5616;42.692;23.312;2023-03-14T07:58:32;12.97;;;10.47;;
11123;SDS011;5616;42.692;23.312;2023-03-14T08:01:00;16.60;;;11.00;;
11123;SDS011;5616;42.692;23.312;2023-03-14T08:03:27;13.00;;;10.30;;
11123;SDS011;5616;42.692;23.312;2023-03-14T08:05:54;13.93;;;9.77;;
11123;SDS011;5616;42.692;23.312;2023-03-14T08:08:20;13.73;;;9.90;;
11123;SDS011;5616;42.692;23.312;2023-03-14T08:10:47;13.93;;;10.20;;
11123;SDS011;5616;42.692;23.312;2023-03-14T08:13:14;17.80;;;9.40;;
11123;SDS011;5616;42.692;23.312;2023-03-14T08:15:41;14.50;;;9.57;;
11123;SDS011;5616;42.692;23.312;2023-03-14T08:18:09;16.27;;;9.77;;
11123;SDS011;5616;42.692;23.312;2023-03-14T08:20:36;14.43;;;9.33;;
11123;SDS011;5616;42.692;23.312;2023-03-14T08:23:03;11.40;;;8.63;;
11123;SDS011;5616;42.692;23.312;2023-03-14T08:25:30;10.73;;;8.43;;
11123;SDS011;5616;42.692;23.312;2023-03-14T08:27:57;10.93;;;7.87;;
11123;SDS011;5616;42.692;23.312;2023-03-14T08:30:24;8.80;;;7.30;;
11123;SDS011;5616;42.692;23.312;2023-03-14T08:32:51;12.67;;;7.30;;
11123;SDS011;5616;42.692;23.312;2023-03-14T08:35:19;10.17;;;6.43;;
11123;SDS011;5616;42.692;23.312;2023-03-14T08:37:46;9.53;;;6.37;;
11123;SDS011;5616;42.692;23.312;2023-03-14T08:40:13;9.63;;;7.00;;
11123;SDS011;5616;42.692;23.312;2023-03-14T08:42:42;11.33;;;6.77;;
11123;SDS011;5616;42.692;23.312;2023-03-14T08:45:10;8.50;;;6.63;;
11123;SDS011;5616;42.692;23.312;2023-03-14T08:47:38;9.77;;;6.77;;
11123;SDS011;5616;42.692;23.312;2023-03-14T08:50:05;10.80;;;6.73;;
11123;SDS011;5616;42.692;23.312;2023-03-14T08:52:35;10.20;;;6.57;;
11123;SDS011;5616;42.692;23.312;2023-03-14T08:55:03;8.37;;;5.93;;
11123;SDS011;5616;42.692;23.312;2023-03-14T08:57:30;10.17;;;6.10;;
11123;SDS011;5616;42.692;23.312;2023-03-14T08:59:57;8.37;;;5.83;;
11123;SDS011;5616;42.692;23.312;2023-03-14T09:02:25;7.83;;;5.77;;
11123;SDS011;5616;42.692;23.312;2023-03-14T09:04:52;11.00;;;6.00;;
11123;SDS011;5616;42.692;23.312;2023-03-14T09:07:19;7.47;;;5.70;;
11123;SDS011;5616;42.692;23.312;2023-03-14T09:09:47;12.73;;;5.87;;
11123;SDS011;5616;42.692;23.312;2023-03-14T09:12:14;9.63;;;5.83;;
11123;SDS011;5616;42.692;23.312;2023-03-14T09:14:41;8.37;;;5.57;;
11123;SDS011;5616;42.692;23.312;2023-03-14T09:17:08;10.80;;;6.43;;
11123;SDS011;5616;42.692;23.312;2023-03-14T09:19:35;7.20;;;5.93;;
11123;SDS011;5616;42.692;23.312;2023-03-14T09:22:02;15.27;;;9.13;;
11123;SDS011;5616;42.692;23.312;2023-03-14T09:24:29;9.83;;;6.50;;
11123;SDS011;5616;42.692;23.312;2023-03-14T09:26:57;7.53;;;5.80;;
11123;SDS011;5616;42.692;23.312;2023-03-14T09:29:24;9.47;;;5.53;;
11123;SDS011;5616;42.692;23.312;2023-03-14T09:31:51;17.13;;;8.53;;
11123;SDS011;5616;42.692;23.312;2023-03-14T09:34:18;12.67;;;6.87;;
11123;SDS011;5616;42.692;23.312;2023-03-14T09:36:45;7.97;;;5.53;;
11123;SDS011;5616;42.692;23.312;2023-03-14T09:39:12;12.47;;;8.03;;
11123;SDS011;5616;42.692;23.312;2023-03-14T09:41:39;8.57;;;6.17;;
11123;SDS011;5616;42.692;23.312;2023-03-14T09:44:11;17.47;;;9.20;;
11123;SDS011;5616;42.692;23.312;2023-03-14T09:46:41;14.07;;;8.03;;
11123;SDS011;5616;42.692;23.312;2023-03-14T09:49:14;9.83;;;5.80;;
11123;SDS011;5616;42.692;23.312;2023-03-14T09:51:46;19.20;;;9.60;;
11123;SDS011;5616;42.692;23.312;2023-03-14T09:54:18;11.47;;;6.43;;
11123;SDS011;5616;42.692;23.312;2023-03-14T09:56:55;20.20;;;11.63;;
11123;SDS011;5616;42.692;23.312;2023-03-14T09:59:23;10.63;;;4.90;;
11123;SDS011;5616;42.692;23.312;2023-03-14T10:01:52;5.70;;;4.53;;
11123;SDS011;5616;42.692;23.312;2023-03-14T10:04:21;19.87;;;8.10;;
11123;SDS011;5616;42.692;23.312;2023-03-14T10:06:49;10.07;;;5.60;;
11123;SDS011;5616;42.692;23.312;2023-03-14T10:09:17;11.80;;;6.90;;
11123;SDS011;5616;42.692;23.312;2023-03-14T10:11:51;7.03;;;5.27;;
11123;SDS011;5616;42.692;23.312;2023-03-14T10:14:30;5.03;;;4.33;;
11123;SDS011;5616;42.692;23.312;2023-03-14T10:17:09;11.37;;;5.27;;
11123;SDS011;5616;42.692;23.312;2023-03-14T10:19:37;15.47;;;8.83;;
11123;SDS011;5616;42.692;23.312;2023-03-14T10:22:16;11.53;;;6.93;;
11123;SDS011;5616;42.692;23.312;2023-03-14T10:24:45;23.90;;;10.33;;
11123;SDS011;5616;42.692;23.312;2023-03-14T10:27:19;18.73;;;9.53;;
11123;SDS011;5616;42.692;23.312;2023-03-14T10:29:53;8.73;;;6.07;;
11123;SDS011;5616;42.692;23.312;2023-03-14T10:32:21;6.13;;;4.70;;
11123;SDS011;5616;42.692;23.312;2023-03-14T10:35:05;8.60;;;5.40;;
11123;SDS011;5616;42.692;23.312;2023-03-14T10:37:51;5.60;;;5.00;;
11123;SDS011;5616;42.692;23.312;2023-03-14T10:40:24;11.13;;;5.80;;
11123;SDS011;5616;42.692;23.312;2023-03-14T10:42:54;9.47;;;5.80;;
11123;SDS011;5616;42.692;23.312;2023-03-14T10:45:25;9.00;;;5.47;;
11123;SDS011;5616;42.692;23.312;2023-03-14T10:47:58;10.10;;;5.60;;
11123;SDS011;5616;42.692;23.312;2023-03-14T10:50:26;8.07;;;5.53;;
11123;SDS011;5616;42.692;23.312;2023-03-14T10:52:55;10.80;;;5.77;;
11123;SDS011;5616;42.692;23.312;2023-03-14T10:55:23;7.77;;;4.73;;
11123;SDS011;5616;42.692;23.312;2023-03-14T10:57:51;6.83;;;4.87;;
11123;SDS011;5616;42.692;23.312;2023-03-14T11:00:19;8.47;;;4.50;;
11123;SDS011;5616;42.692;23.312;2023-03-14T11:02:52;5.37;;;4.23;;
11123;SDS011;5616;42.692;23.312;2023-03-14T11:05:28;5.83;;;4.20;;
11123;SDS011;5616;42.692;23.312;2023-03-14T11:08:06;8.60;;;3.93;;
11123;SDS011;5616;42.692;23.312;2023-03-14T11:10:36;6.80;;;4.00;;
11123;SDS011;5616;42.692;23.312;2023-03-14T11:13:15;5.40;;;3.53;;
11123;SDS011;5616;42.692;23.312;2023-03-14T11:15:51;8.83;;;3.53;;
11123;SDS011;5616;42.692;23.312;2023-03-14T11:18:42;3.87;;;3.47;;
11123;SDS011;5616;42.692;23.312;2023-03-14T11:21:28;6.90;;;4.03;;
11123;SDS011;5616;42.692;23.312;2023-03-14T11:27:06;5.03;;;3.87;;
11123;SDS011;5616;42.692;23.312;2023-03-14T11:29:39;5.57;;;3.70;;
11123;SDS011;5616;42.692;23.312;2023-03-14T11:32:12;12.10;;;4.43;;
11123;SDS011;5616;42.692;23.312;2023-03-14T11:34:46;5.20;;;3.67;;
11123;SDS011;5616;42.692;23.312;2023-03-14T11:37:18;6.10;;;3.13;;
11123;SDS011;5616;42.692;23.312;2023-03-14T11:39:52;4.43;;;3.43;;
11123;SDS011;5616;42.692;23.312;2023-03-14T11:42:25;5.73;;;3.70;;
11123;SDS011;5616;42.692;23.312;2023-03-14T11:44:53;6.73;;;4.10;;
11123;SDS011;5616;42.692;23.312;2023-03-14T11:47:22;6.27;;;3.40;;
11123;SDS011;5616;42.692;23.312;2023-03-14T11:49:56;6.10;;;4.03;;
11123;SDS011;5616;42.692;23.312;2023-03-14T11:52:29;4.60;;;3.33;;
11123;SDS011;5616;42.692;23.312;2023-03-14T11:55:00;6.23;;;3.10;;
11123;SDS011;5616;42.692;23.312;2023-03-14T11:57:32;4.60;;;3.13;;
11123;SDS011;5616;42.692;23.312;2023-03-14T12:00:00;4.33;;;3.10;;
11123;SDS011;5616;42.692;23.312;2023-03-14T12:02:40;5.00;;;2.73;;
11123;SDS011;5616;42.692;23.312;2023-03-14T12:08:24;3.83;;;2.60;;
11123;SDS011;5616;42.692;23.312;2023-03-14T12:11:04;3.17;;;2.60;;
11123;SDS011;5616;42.692;23.312;2023-03-14T12:13:37;5.67;;;2.93;;
11123;SDS011;5616;42.692;23.312;2023-03-14T12:16:05;4.63;;;3.20;;
11123;SDS011;5616;42.692;23.312;2023-03-14T12:18:45;7.60;;;3.17;;
11123;SDS011;5616;42.692;23.312;2023-03-14T12:21:13;11.13;;;5.27;;
11123;SDS011;5616;42.692;23.312;2023-03-14T12:23:41;8.03;;;4.37;;
11123;SDS011;5616;42.692;23.312;2023-03-14T12:26:13;9.10;;;4.90;;
11123;SDS011;5616;42.692;23.312;2023-03-14T12:28:43;4.70;;;2.90;;
11123;SDS011;5616;42.692;23.312;2023-03-14T12:36:56;4.73;;;2.90;;
11123;SDS011;5616;42.692;23.312;2023-03-14T12:39:33;4.77;;;2.43;;
11123;SDS011;5616;42.692;23.312;2023-03-14T12:42:09;4.30;;;2.63;;
11123;SDS011;5616;42.692;23.312;2023-03-14T12:44:39;2.30;;;2.10;;
11123;SDS011;5616;42.692;23.312;2023-03-14T12:50:20;4.70;;;2.20;;
11123;SDS011;5616;42.692;23.312;2023-03-14T12:53:00;8.10;;;2.10;;
11123;SDS011;5616;42.692;23.312;2023-03-14T12:55:46;4.17;;;2.37;;
11123;SDS011;5616;42.692;23.312;2023-03-14T12:58:21;5.40;;;2.17;;
11123;SDS011;5616;42.692;23.312;2023-03-14T13:00:56;5.67;;;3.23;;
11123;SDS011;5616;42.692;23.312;2023-03-14T13:03:26;14.17;;;6.17;;
11123;SDS011;5616;42.692;23.312;2023-03-14T13:06:03;7.90;;;3.03;;
11123;SDS011;5616;42.692;23.312;2023-03-14T13:08:36;6.10;;;3.60;;
11123;SDS011;5616;42.692;23.312;2023-03-14T13:11:05;13.07;;;6.63;;
11123;SDS011;5616;42.692;23.312;2023-03-14T13:13:35;2.80;;;2.13;;
11123;SDS011;5616;42.692;23.312;2023-03-14T13:16:09;3.07;;;1.97;;
11123;SDS011;5616;42.692;23.312;2023-03-14T13:18:40;2.17;;;1.83;;
11123;SDS011;5616;42.692;23.312;2023-03-14T13:21:10;2.33;;;2.07;;
11123;SDS011;5616;42.692;23.312;2023-03-14T13:23:41;5.80;;;1.90;;
11123;SDS011;5616;42.692;23.312;2023-03-14T13:26:20;3.43;;;1.80;;
11123;SDS011;5616;42.692;23.312;2023-03-14T13:28:48;3.97;;;1.90;;
11123;SDS011;5616;42.692;23.312;2023-03-14T13:31:18;2.67;;;1.80;;
11123;SDS011;5616;42.692;23.312;2023-03-14T13:33:56;2.13;;;1.73;;
11123;SDS011;5616;42.692;23.312;2023-03-14T13:36:23;4.40;;;1.97;;
11123;SDS011;5616;42.692;23.312;2023-03-14T13:38:56;2.03;;;1.70;;
11123;SDS011;5616;42.692;23.312;2023-03-14T13:41:24;2.13;;;1.80;;
11123;SDS011;5616;42.692;23.312;2023-03-14T13:43:52;2.40;;;2.17;;
11123;SDS011;5616;42.692;23.312;2023-03-14T13:46:27;2.03;;;1.83;;
11123;SDS011;5616;42.692;23.312;2023-03-14T13:48:54;3.30;;;1.80;;
11123;SDS011;5616;42.692;23.312;2023-03-14T13:51:24;3.30;;;1.70;;
11123;SDS011;5616;42.692;23.312;2023-03-14T13:53:55;4.77;;;1.70;;
11123;SDS011;5616;42.692;23.312;2023-03-14T13:56:23;2.93;;;1.80;;
11123;SDS011;5616;42.692;23.312;2023-03-14T13:58:52;2.47;;;1.90;;
11123;SDS011;5616;42.692;23.312;2023-03-14T14:01:19;2.67;;;1.80;;
11123;SDS011;5616;42.692;23.312;2023-03-14T14:03:49;3.87;;;1.77;;
11123;SDS011;5616;42.692;23.312;2023-03-14T14:06:28;3.40;;;1.50;;
11123;SDS011;5616;42.692;23.312;2023-03-14T14:09:00;2.17;;;1.83;;
11123;SDS011;5616;42.692;23.312;2023-03-14T14:11:32;1.80;;;1.60;;
11123;SDS011;5616;42.692;23.312;2023-03-14T14:14:05;3.13;;;2.03;;
11123;SDS011;5616;42.692;23.312;2023-03-14T14:16:37;2.10;;;1.90;;
11123;SDS011;5616;42.692;23.312;2023-03-14T14:19:04;5.10;;;2.37;;
11123;SDS011;5616;42.692;23.312;2023-03-14T14:21:31;2.73;;;1.90;;
11123;SDS011;5616;42.692;23.312;2023-03-14T14:24:00;2.83;;;2.20;;
11123;SDS011;5616;42.692;23.312;2023-03-14T14:26:27;2.67;;;2.07;;
11123;SDS011;5616;42.692;23.312;2023-03-14T14:29:02;2.50;;;1.80;;
11123;SDS011;5616;42.692;23.312;2023-03-14T14:31:30;3.70;;;2.03;;
11123;SDS011;5616;42.692;23.312;2023-03-14T14:33:57;2.53;;;1.70;;
11123;SDS011;5616;42.692;23.312;2023-03-14T14:36:26;2.70;;;2.20;;
11123;SDS011;5616;42.692;23.312;2023-03-14T14:38:57;2.70;;;2.00;;
11123;SDS011;5616;42.692;23.312;2023-03-14T14:41:27;2.00;;;1.80;;
11123;SDS011;5616;42.692;23.312;2023-03-14T14:43:56;2.93;;;2.00;;
11123;SDS011;5616;42.692;23.312;2023-03-14T14:46:26;3.27;;;1.80;;
11123;SDS011;5616;42.692;23.312;2023-03-14T14:48:56;2.43;;;1.90;;
11123;SDS011;5616;42.692;23.312;2023-03-14T14:51:31;6.43;;;2.27;;
11123;SDS011;5616;42.692;23.312;2023-03-14T14:54:09;3.23;;;2.00;;
11123;SDS011;5616;42.692;23.312;2023-03-14T14:56:37;2.30;;;2.00;;
11123;SDS011;5616;42.692;23.312;2023-03-14T14:59:05;3.80;;;1.73;;
11123;SDS011;5616;42.692;23.312;2023-03-14T15:01:45;5.03;;;1.80;;
11123;SDS011;5616;42.692;23.312;2023-03-14T15:04:15;3.87;;;2.13;;
11123;SDS011;5616;42.692;23.312;2023-03-14T15:06:42;2.23;;;1.90;;
11123;SDS011;5616;42.692;23.312;2023-03-14T15:09:13;2.70;;;2.23;;
11123;SDS011;5616;42.692;23.312;2023-03-14T15:11:41;3.40;;;2.10;;
11123;SDS011;5616;42.692;23.312;2023-03-14T15:14:08;3.07;;;2.23;;
11123;SDS011;5616;42.692;23.312;2023-03-14T15:16:35;3.80;;;2.30;;
11123;SDS011;5616;42.692;23.312;2023-03-14T15:19:03;3.00;;;1.90;;